createdAt,value
2022-11-28T00:01:30.028Z,74.90
2022-11-28T00:04:00.428Z,98.90
2022-11-28T00:06:29.109Z,107.80
2022-11-28T00:09:00.317Z,120.30
2022-11-28T00:11:31.171Z,151.10
2022-11-28T00:13:59.976Z,366.70
2022-11-28T00:16:28.542Z,349.50
2022-11-28T00:19:01.846Z,260.80
2022-11-28T00:21:32.031Z,216.10
2022-11-28T00:24:00.801Z,218.50
2022-11-28T00:26:33.748Z,252.20
2022-11-28T00:29:03.432Z,286.00
2022-11-28T00:31:33.423Z,284.80
2022-11-28T00:34:03.450Z,274.70
2022-11-28T00:36:31.856Z,210.80
2022-11-28T00:39:02.787Z,226.70
2022-11-28T00:41:35.300Z,201.00
2022-11-28T00:44:04.880Z,174.20
2022-11-28T00:46:34.566Z,180.10
2022-11-28T00:49:03.665Z,173.80
2022-11-28T00:51:35.325Z,162.20
2022-11-28T00:54:06.403Z,155.10
2022-11-28T00:56:37.964Z,159.10
2022-11-28T00:59:07.193Z,133.10
2022-11-28T01:01:37.934Z,125.50
2022-11-28T01:04:08.744Z,117.10
2022-11-28T01:06:38.991Z,96.50
2022-11-28T01:09:09.808Z,79.30
2022-11-28T01:11:39.680Z,65.50
2022-11-28T01:14:09.772Z,76.30
2022-11-28T01:16:40.078Z,54.80
2022-11-28T01:19:11.050Z,51.40
2022-11-28T01:21:39.504Z,41.50
2022-11-28T01:24:09.535Z,42.60
2022-11-28T01:26:39.831Z,49.90
2022-11-28T01:29:10.184Z,43.60
2022-11-28T01:31:38.822Z,43.40
2022-11-28T01:34:07.808Z,38.30
2022-11-28T01:36:38.719Z,34.50
2022-11-28T01:39:08.131Z,32.40
2022-11-28T01:41:37.816Z,31.20
2022-11-28T01:44:28.963Z,30.90
2022-11-28T01:46:57.797Z,29.80
2022-11-28T01:49:31.439Z,28.90
2022-11-28T01:52:07.414Z,30.10
2022-11-28T01:54:36.839Z,28.70
2022-11-28T01:57:11.024Z,28.00
2022-11-28T01:59:42.405Z,30.00
2022-11-28T02:02:20.730Z,29.30
2022-11-28T02:04:52.081Z,27.80
2022-11-28T02:07:21.733Z,25.30
2022-11-28T02:09:51.571Z,25.20
2022-11-28T02:12:30.406Z,24.20
2022-11-28T02:15:13.957Z,25.20
2022-11-28T02:17:50.410Z,23.10
2022-11-28T02:20:47.631Z,22.00
2022-11-28T02:23:20.135Z,21.50
2022-11-28T02:26:05.685Z,21.60
2022-11-28T02:29:03.720Z,23.90
2022-11-28T02:31:58.091Z,24.00
2022-11-28T02:34:30.155Z,24.10
2022-11-28T02:37:03.644Z,25.10
2022-11-28T02:39:38.357Z,25.70
2022-11-28T02:42:11.836Z,25.00
2022-11-28T02:44:44.759Z,24.00
2022-11-28T02:47:20.375Z,23.50
2022-11-28T02:49:55.116Z,23.10
2022-11-28T02:52:27.887Z,22.40
2022-11-28T02:54:58.291Z,21.70
2022-11-28T02:57:36.324Z,19.30
2022-11-28T03:00:27.826Z,17.10
2022-11-28T03:03:18.275Z,17.80
2022-11-28T03:05:54.703Z,16.70
2022-11-28T03:08:37.047Z,19.20
2022-11-28T03:11:14.937Z,19.40
2022-11-28T03:13:50.634Z,18.30
2022-11-28T03:16:26.907Z,16.30
2022-11-28T03:19:01.387Z,16.30
2022-11-28T03:21:40.973Z,15.80
2022-11-28T03:24:15.407Z,15.50
2022-11-28T03:26:50.566Z,15.00
2022-11-28T03:29:23.247Z,14.80
2022-11-28T03:31:54.717Z,15.60
2022-11-28T03:34:28.042Z,15.60
2022-11-28T03:37:00.180Z,14.70
2022-11-28T03:39:32.095Z,14.30
2022-11-28T03:42:05.263Z,15.20
2022-11-28T03:44:40.333Z,15.60
2022-11-28T03:47:09.391Z,16.80
2022-11-28T03:49:40.698Z,16.00
2022-11-28T03:52:14.499Z,16.30
2022-11-28T03:54:48.635Z,16.10
2022-11-28T03:57:24.243Z,15.10
2022-11-28T03:59:53.904Z,15.50
2022-11-28T04:02:25.866Z,15.90
2022-11-28T04:05:02.253Z,16.30
2022-11-28T04:07:34.334Z,18.20
2022-11-28T04:10:08.486Z,17.00
2022-11-28T04:12:48.685Z,23.50
2022-11-28T04:15:20.921Z,26.40
2022-11-28T04:17:54.121Z,17.20
2022-11-28T04:20:28.660Z,17.50
2022-11-28T04:23:02.468Z,18.20
2022-11-28T04:25:34.902Z,18.00
2022-11-28T04:28:06.353Z,17.30
2022-11-28T04:30:35.229Z,17.20
2022-11-28T04:33:09.052Z,18.40
2022-11-28T04:35:39.990Z,20.40
2022-11-28T04:38:12.149Z,20.10
2022-11-28T04:40:44.229Z,19.60
2022-11-28T04:43:18.197Z,19.00
2022-11-28T04:45:51.389Z,16.90
2022-11-28T04:48:20.372Z,17.20
2022-11-28T04:50:52.544Z,16.30
2022-11-28T04:53:27.399Z,16.60
2022-11-28T04:56:03.756Z,17.40
2022-11-28T04:58:35.433Z,17.80
2022-11-28T05:01:08.049Z,18.00
2022-11-28T05:03:42.292Z,29.00
2022-11-28T05:06:11.318Z,27.30
2022-11-28T05:08:39.878Z,34.70
2022-11-28T05:11:10.744Z,36.50
2022-11-28T05:13:39.362Z,40.10
2022-11-28T05:16:08.767Z,32.70
2022-11-28T05:18:37.313Z,36.20
2022-11-28T05:21:08.385Z,38.80
2022-11-28T05:23:37.657Z,40.80
2022-11-28T05:26:08.238Z,35.00
2022-11-28T05:28:37.007Z,27.40
2022-11-28T05:31:06.670Z,51.90
2022-11-28T05:33:35.300Z,74.30
2022-11-28T05:36:12.589Z,53.70
2022-11-28T05:38:42.556Z,58.50
2022-11-28T05:41:18.068Z,54.30
2022-11-28T05:43:46.832Z,64.60
2022-11-28T05:46:16.199Z,37.40
2022-11-28T05:48:45.052Z,52.90
2022-11-28T05:51:13.704Z,87.40
2022-11-28T05:53:42.413Z,308.50
2022-11-28T05:56:13.272Z,157.60
2022-11-28T05:58:42.848Z,70.10
2022-11-28T06:01:13.267Z,87.70
2022-11-28T06:03:42.434Z,79.80
2022-11-28T06:06:13.747Z,59.80
2022-11-28T06:08:43.007Z,46.00
2022-11-28T06:11:14.068Z,31.20
2022-11-28T06:13:44.355Z,36.10
2022-11-28T06:16:14.920Z,52.50
2022-11-28T06:18:43.693Z,50.40
2022-11-28T06:21:13.268Z,41.30
2022-11-28T06:23:42.295Z,29.70
2022-11-28T06:26:14.554Z,27.30
2022-11-28T06:28:44.309Z,31.10
2022-11-28T06:31:14.165Z,27.80
2022-11-28T06:33:43.671Z,26.80
2022-11-28T06:36:13.687Z,26.50
2022-11-28T06:38:42.501Z,27.60
2022-11-28T06:41:13.101Z,38.70
2022-11-28T06:43:41.924Z,40.20
2022-11-28T06:46:15.909Z,46.30
2022-11-28T06:48:46.307Z,37.20
2022-11-28T06:51:15.112Z,36.00
2022-11-28T06:53:44.157Z,32.20
2022-11-28T06:56:14.649Z,34.20
2022-11-28T06:58:44.834Z,29.40
2022-11-28T07:01:15.336Z,35.40
2022-11-28T07:03:44.191Z,37.00
2022-11-28T07:06:13.728Z,57.40
2022-11-28T07:08:43.064Z,76.70
2022-11-28T07:11:14.137Z,58.80
2022-11-28T07:13:45.115Z,39.50
2022-11-28T07:16:15.957Z,39.10
2022-11-28T07:18:45.143Z,34.70
2022-11-28T07:21:14.365Z,32.90
2022-11-28T07:23:43.747Z,38.00
2022-11-28T07:26:14.463Z,54.40
2022-11-28T07:28:44.399Z,105.90
2022-11-28T07:31:14.909Z,92.90
2022-11-28T07:33:46.038Z,71.60
2022-11-28T07:36:16.433Z,52.90
2022-11-28T07:38:47.434Z,50.40
2022-11-28T07:41:16.756Z,51.50
2022-11-28T07:43:46.580Z,50.10
2022-11-28T07:46:17.571Z,42.70
2022-11-28T07:48:47.241Z,39.40
2022-11-28T07:51:17.352Z,31.00
2022-11-28T07:53:46.615Z,49.80
2022-11-28T07:56:18.048Z,39.10
2022-11-28T07:58:47.743Z,41.70
2022-11-28T08:01:18.750Z,30.90
2022-11-28T08:03:47.604Z,29.50
2022-11-28T08:06:17.560Z,28.30
2022-11-28T08:08:47.091Z,38.80
2022-11-28T08:11:17.323Z,37.40
2022-11-28T08:13:46.310Z,99.10
2022-11-28T08:16:16.937Z,94.80
2022-11-28T08:18:46.347Z,56.50
2022-11-28T08:21:17.386Z,38.30
2022-11-28T08:23:46.232Z,43.00
2022-11-28T08:26:16.476Z,34.50
2022-11-28T08:28:45.400Z,42.40
2022-11-28T08:31:16.341Z,44.90
2022-11-28T08:33:46.535Z,55.10
2022-11-28T08:36:16.201Z,39.60
2022-11-28T08:39:02.922Z,34.10
2022-11-28T08:41:34.660Z,35.50
2022-11-28T08:44:04.745Z,43.30
2022-11-28T08:46:33.682Z,58.40
2022-11-28T08:49:04.587Z,53.60
2022-11-28T08:51:34.367Z,38.10
2022-11-28T08:54:02.956Z,36.60
2022-11-28T08:56:32.026Z,32.80
2022-11-28T08:59:02.010Z,32.60
2022-11-28T09:01:30.733Z,33.40
2022-11-28T09:03:59.346Z,41.50
2022-11-28T09:06:28.015Z,34.00
2022-11-28T09:08:56.564Z,32.60
2022-11-28T09:11:25.180Z,32.70
2022-11-28T09:13:53.741Z,33.20
2022-11-28T09:16:24.637Z,33.10
2022-11-28T09:18:53.747Z,31.20
2022-11-28T09:21:22.239Z,31.10
2022-11-28T09:23:51.048Z,32.60
2022-11-28T09:26:21.151Z,33.00
2022-11-28T09:28:49.823Z,38.30
2022-11-28T09:31:19.097Z,35.10
2022-11-28T09:33:49.453Z,30.60
2022-11-28T09:36:21.091Z,34.20
2022-11-28T09:38:52.456Z,32.50
2022-11-28T09:41:42.451Z,28.60
2022-11-28T09:44:18.412Z,27.90
2022-11-28T09:46:50.480Z,27.50
2022-11-28T09:49:39.906Z,28.50
2022-11-28T09:52:23.834Z,29.80
2022-11-28T09:54:58.928Z,31.40
2022-11-28T09:57:36.048Z,32.70
2022-11-28T10:00:11.344Z,33.30
2022-11-28T10:02:46.454Z,34.50
2022-11-28T10:05:20.658Z,30.80
2022-11-28T10:08:01.006Z,31.10
2022-11-28T10:10:36.437Z,31.40
2022-11-28T10:13:12.223Z,29.70
2022-11-28T10:15:47.454Z,28.70
2022-11-28T10:18:38.003Z,29.20
2022-11-28T10:21:22.445Z,24.10
2022-11-28T10:23:54.445Z,24.50
2022-11-28T10:26:32.431Z,24.60
2022-11-28T10:29:05.460Z,24.60
2022-11-28T10:31:39.172Z,23.70
2022-11-28T10:42:10.536Z,24.00
2022-11-28T10:44:54.469Z,24.30
2022-11-28T10:47:40.061Z,26.20
2022-11-28T10:50:20.946Z,23.00
2022-11-28T10:52:59.155Z,26.10
2022-11-28T10:55:39.419Z,26.30
2022-11-28T10:58:17.862Z,25.70
2022-11-28T11:00:54.220Z,25.00
2022-11-28T11:03:31.938Z,23.80
2022-11-28T11:06:05.890Z,22.30
2022-11-28T11:08:40.909Z,24.40
2022-11-28T11:11:24.450Z,27.30
2022-11-28T11:14:07.050Z,29.00
2022-11-28T11:16:56.836Z,32.70
2022-11-28T11:19:32.029Z,28.30
2022-11-28T11:22:16.625Z,33.00
2022-11-28T11:25:11.710Z,29.40
2022-11-28T11:27:50.723Z,30.30
2022-11-28T11:30:29.178Z,28.50
2022-11-28T11:33:08.119Z,27.80
2022-11-28T11:35:45.766Z,30.30
2022-11-28T11:38:36.317Z,31.70
2022-11-28T11:41:30.751Z,28.50
2022-11-28T11:44:29.620Z,28.10
2022-11-28T11:47:05.274Z,35.30
2022-11-28T11:49:40.604Z,31.60
2022-11-28T11:52:22.988Z,27.80
2022-11-28T11:55:08.149Z,27.20
2022-11-28T11:57:44.640Z,27.30
2022-11-28T12:00:35.648Z,26.10
2022-11-28T12:03:14.224Z,27.50
2022-11-28T12:06:13.092Z,26.80
2022-11-28T12:08:51.586Z,22.50
2022-11-28T12:11:29.411Z,23.90
2022-11-28T12:14:13.867Z,25.30
2022-11-28T12:16:52.521Z,23.80
2022-11-28T12:19:33.126Z,21.60
2022-11-28T12:22:16.548Z,22.90
2022-11-28T12:24:56.316Z,22.90
2022-11-28T12:27:40.086Z,23.30
2022-11-28T12:30:34.503Z,21.80
2022-11-28T12:33:20.287Z,24.60
2022-11-28T12:36:03.317Z,23.90
2022-11-28T12:38:55.618Z,24.60
2022-11-28T12:41:42.005Z,36.10
2022-11-28T12:44:23.276Z,28.40
2022-11-28T12:47:01.999Z,22.90
2022-11-28T12:49:40.935Z,23.20
2022-11-28T12:52:22.278Z,23.00
2022-11-28T12:55:03.341Z,22.00
2022-11-28T12:57:41.551Z,22.30
2022-11-28T13:00:20.127Z,22.50
2022-11-28T13:03:07.342Z,23.00
2022-11-28T13:05:48.297Z,24.80
2022-11-28T13:08:34.946Z,25.10
2022-11-28T13:11:19.800Z,23.30
2022-11-28T13:13:56.886Z,20.50
2022-11-28T13:16:34.487Z,23.00
2022-11-28T13:19:19.915Z,23.90
2022-11-28T13:21:57.286Z,24.30
2022-11-28T13:24:35.383Z,22.40
2022-11-28T13:27:22.181Z,23.70
2022-11-28T13:30:19.764Z,23.80
2022-11-28T13:32:56.529Z,24.40
2022-11-28T13:35:32.955Z,23.80
2022-11-28T13:41:18.060Z,22.70
2022-11-28T13:44:05.845Z,21.50
2022-11-28T13:46:38.454Z,21.30
2022-11-28T13:49:22.910Z,22.60
2022-11-28T13:52:41.221Z,21.20
2022-11-28T13:55:41.376Z,20.70
2022-11-28T13:58:25.614Z,21.10
2022-11-28T14:01:06.868Z,21.10
2022-11-28T14:03:49.291Z,23.80
2022-11-28T14:06:23.700Z,28.00
2022-11-28T14:09:07.357Z,21.70
2022-11-28T14:12:08.416Z,19.10
2022-11-28T14:14:56.064Z,17.60
2022-11-28T14:17:46.016Z,18.10
2022-11-28T14:20:28.851Z,18.20
2022-11-28T14:23:15.324Z,16.30
2022-11-28T14:25:48.974Z,17.20
2022-11-28T14:28:26.459Z,18.20
2022-11-28T14:31:08.839Z,19.90
2022-11-28T14:33:43.911Z,17.60
2022-11-28T14:36:37.305Z,17.30
2022-11-28T14:39:35.101Z,16.10
2022-11-28T14:42:59.488Z,18.90
2022-11-28T14:45:52.874Z,15.90
2022-11-28T14:48:33.078Z,16.40
2022-11-28T14:51:05.646Z,15.60
2022-11-28T14:53:46.506Z,18.40
2022-11-28T14:56:30.913Z,25.90
2022-11-28T14:59:04.622Z,17.20
2022-11-28T15:01:55.715Z,19.10
2022-11-28T15:04:55.121Z,21.00
2022-11-28T15:07:33.366Z,20.00
2022-11-28T15:10:13.104Z,21.40
2022-11-28T15:12:56.583Z,20.50
2022-11-28T15:15:29.918Z,21.30
2022-11-28T15:18:07.102Z,27.20
2022-11-28T15:20:44.066Z,25.10
2022-11-28T15:23:26.632Z,21.70
2022-11-28T15:26:04.306Z,23.40
2022-11-28T15:28:39.159Z,25.30
2022-11-28T15:31:25.076Z,21.00
2022-11-28T15:33:57.825Z,24.10
2022-11-28T15:36:31.713Z,23.20
2022-11-28T15:39:13.913Z,20.90
2022-11-28T15:41:49.043Z,19.10
2022-11-28T15:44:21.016Z,20.20
2022-11-28T15:46:54.631Z,22.70
2022-11-28T15:49:30.438Z,28.60
2022-11-28T15:52:06.064Z,31.80
2022-11-28T15:54:42.077Z,24.20
2022-11-28T15:57:23.451Z,24.30
2022-11-28T15:59:56.627Z,25.90
2022-11-28T16:02:34.961Z,28.40
2022-11-28T16:05:11.272Z,30.20
2022-11-28T16:07:46.049Z,29.70
2022-11-28T16:10:25.024Z,26.80
2022-11-28T16:13:03.593Z,27.70
2022-11-28T16:15:35.853Z,28.40
2022-11-28T16:18:14.532Z,27.20
2022-11-28T16:20:50.348Z,26.90
2022-11-28T16:23:28.446Z,28.10
2022-11-28T16:26:05.036Z,27.80
2022-11-28T16:28:40.760Z,27.50
2022-11-28T16:31:24.307Z,29.70
2022-11-28T16:33:59.667Z,28.50
2022-11-28T16:36:37.180Z,29.00
2022-11-28T16:39:16.259Z,27.70
2022-11-28T16:41:54.942Z,28.20
2022-11-28T16:44:31.285Z,27.30
2022-11-28T16:47:03.640Z,28.60
2022-11-28T16:49:38.280Z,29.80
2022-11-28T16:52:47.006Z,30.80
2022-11-28T16:55:46.319Z,30.70
2022-11-28T16:58:25.464Z,32.00
2022-11-28T17:01:07.022Z,31.00
2022-11-28T17:03:58.083Z,37.20
2022-11-28T17:06:36.952Z,41.30
2022-11-28T17:09:11.100Z,39.90
2022-11-28T17:11:48.710Z,38.10
2022-11-28T17:14:23.509Z,38.20
2022-11-28T17:17:00.656Z,39.60
2022-11-28T17:19:34.808Z,41.20
2022-11-28T17:22:09.612Z,41.90
2022-11-28T17:24:42.484Z,42.90
2022-11-28T17:27:17.322Z,45.30
2022-11-28T17:29:53.218Z,46.50
2022-11-28T17:32:29.155Z,48.40
2022-11-28T17:35:04.191Z,48.70
2022-11-28T17:37:36.473Z,53.10
2022-11-28T17:40:32.009Z,50.10
2022-11-28T17:43:09.609Z,45.50
2022-11-28T17:45:45.208Z,45.50
2022-11-28T17:48:18.631Z,44.30
2022-11-28T17:50:53.109Z,49.20
2022-11-28T17:53:26.407Z,49.20
2022-11-28T17:56:00.692Z,49.00
2022-11-28T17:58:37.041Z,49.30
2022-11-28T18:01:16.510Z,50.80
2022-11-28T18:03:49.833Z,50.70
2022-11-28T18:06:23.950Z,53.30
2022-11-28T18:08:59.175Z,55.30
2022-11-28T18:11:36.810Z,52.50
2022-11-28T18:14:10.453Z,55.70
2022-11-28T18:16:44.985Z,63.40
2022-11-28T18:19:19.599Z,62.80
2022-11-28T18:21:54.837Z,59.30
2022-11-28T18:24:28.291Z,67.20
2022-11-28T18:27:04.984Z,59.40
2022-11-28T18:29:37.852Z,63.90
2022-11-28T18:32:09.676Z,68.00
2022-11-28T18:34:42.855Z,69.30
2022-11-28T18:37:16.893Z,80.00
2022-11-28T18:39:49.458Z,59.80
2022-11-28T18:42:22.192Z,58.20
2022-11-28T18:44:55.818Z,54.50
2022-11-28T18:47:29.383Z,51.60
2022-11-28T18:50:06.499Z,50.60
2022-11-28T18:52:41.699Z,49.40
2022-11-28T18:55:16.641Z,51.70
2022-11-28T18:57:48.535Z,52.90
2022-11-28T19:00:24.053Z,53.00
2022-11-28T19:02:57.224Z,52.60
2022-11-28T19:05:38.992Z,59.00
2022-11-28T19:08:13.735Z,59.70
2022-11-28T19:10:46.501Z,61.20
2022-11-28T19:13:21.269Z,74.90
2022-11-28T19:15:56.513Z,79.60
2022-11-28T19:18:29.625Z,72.20
2022-11-28T19:21:02.029Z,73.00
2022-11-28T19:23:35.341Z,77.00
2022-11-28T19:26:10.093Z,73.20
2022-11-28T19:28:44.427Z,69.40
2022-11-28T19:31:23.225Z,67.60
2022-11-28T19:34:01.915Z,64.80
2022-11-28T19:36:35.927Z,67.10
2022-11-28T19:39:11.411Z,70.70
2022-11-28T19:41:44.871Z,69.70
2022-11-28T19:44:19.657Z,72.40
2022-11-28T19:46:53.549Z,71.50
2022-11-28T19:49:27.716Z,69.50
2022-11-28T19:52:03.090Z,69.90
2022-11-28T19:54:37.776Z,70.90
2022-11-28T19:57:11.688Z,72.40
2022-11-28T19:59:44.883Z,86.50
2022-11-28T20:02:21.652Z,80.90
2022-11-28T20:04:56.145Z,88.30
2022-11-28T20:07:30.857Z,81.10
2022-11-28T20:10:03.848Z,79.00
2022-11-28T20:12:37.157Z,78.90
2022-11-28T20:15:16.702Z,77.50
2022-11-28T20:17:52.149Z,76.80
2022-11-28T20:20:25.477Z,80.20
2022-11-28T20:22:59.214Z,80.30
2022-11-28T20:25:35.248Z,80.50
2022-11-28T20:28:08.026Z,81.40
2022-11-28T20:30:40.772Z,81.50
2022-11-28T20:33:14.985Z,81.20
2022-11-28T20:35:49.047Z,80.20
2022-11-28T20:38:21.843Z,78.10
2022-11-28T20:40:57.303Z,74.00
2022-11-28T20:43:31.799Z,74.30
2022-11-28T20:46:11.679Z,72.50
2022-11-28T20:48:44.411Z,72.90
2022-11-28T20:51:18.216Z,74.20
2022-11-28T20:53:52.019Z,80.10
2022-11-28T20:56:26.760Z,81.80
2022-11-28T20:59:00.976Z,77.90
2022-11-28T21:01:37.531Z,76.40
2022-11-28T21:04:12.354Z,73.00
2022-11-28T21:06:49.252Z,85.00
2022-11-28T21:09:21.789Z,77.20
2022-11-28T21:11:58.649Z,87.30
2022-11-28T21:14:32.296Z,76.20
2022-11-28T21:17:08.637Z,74.30
2022-11-28T21:19:41.782Z,98.20
2022-11-28T21:22:14.354Z,85.70
2022-11-28T21:24:49.395Z,81.60
2022-11-28T21:27:22.948Z,84.70
2022-11-28T21:29:55.259Z,80.80
2022-11-28T21:32:28.425Z,81.30
2022-11-28T21:35:04.419Z,95.50
2022-11-28T21:37:38.980Z,94.60
2022-11-28T21:40:15.126Z,95.40
2022-11-28T21:42:49.432Z,82.90
2022-11-28T21:45:25.126Z,80.80
2022-11-28T21:48:00.550Z,75.30
2022-11-28T21:50:32.644Z,85.30
2022-11-28T21:53:06.232Z,74.40
2022-11-28T21:55:41.673Z,68.20
2022-11-28T21:58:14.172Z,69.60
2022-11-28T22:00:53.477Z,67.80
2022-11-28T22:03:28.858Z,64.50
2022-11-28T22:06:04.488Z,63.30
2022-11-28T22:08:37.223Z,63.60
2022-11-28T22:11:13.995Z,63.10
2022-11-28T22:13:49.019Z,63.10
2022-11-28T22:16:23.423Z,61.30
2022-11-28T22:18:57.458Z,60.60
2022-11-28T22:24:22.906Z,60.70
2022-11-28T22:26:57.428Z,62.40
2022-11-28T22:29:31.249Z,60.70
2022-11-28T22:32:03.894Z,63.80
2022-11-28T22:34:42.458Z,63.90
2022-11-28T22:37:15.370Z,61.60
2022-11-28T22:39:48.827Z,59.90
2022-11-28T22:42:20.871Z,62.40
2022-11-28T22:44:54.842Z,64.30
2022-11-28T22:47:30.126Z,60.30
2022-11-28T22:50:02.839Z,60.30
2022-11-28T22:52:34.867Z,59.90
2022-11-28T22:55:09.518Z,61.70
2022-11-28T22:57:42.933Z,65.00
2022-11-28T23:00:20.100Z,65.00
2022-11-28T23:02:52.618Z,62.90
2022-11-28T23:05:25.512Z,66.00
2022-11-28T23:07:58.847Z,67.90
2022-11-28T23:10:33.494Z,76.40
2022-11-28T23:13:08.922Z,73.90
2022-11-28T23:15:47.241Z,80.20
2022-11-28T23:18:24.697Z,73.10
2022-11-28T23:21:00.006Z,68.70
2022-11-28T23:23:35.296Z,66.90
2022-11-28T23:26:12.299Z,73.00
2022-11-28T23:28:45.142Z,74.60
2022-11-28T23:31:21.166Z,69.20
2022-11-28T23:33:54.418Z,63.60
2022-11-28T23:36:29.534Z,62.60
2022-11-28T23:39:03.105Z,64.60
2022-11-28T23:41:36.222Z,69.00
2022-11-28T23:44:10.421Z,65.20
2022-11-28T23:46:45.007Z,67.00
2022-11-28T23:49:17.991Z,61.80
2022-11-28T23:51:53.658Z,61.00
2022-11-28T23:54:27.136Z,61.10
2022-11-28T23:56:59.812Z,59.00
2022-11-28T23:59:35.755Z,60.00
